createdAt,value
2023-02-13T00:00:41.566Z,99261.05
2023-02-13T00:03:15.326Z,99255.44
2023-02-13T00:05:48.571Z,99250.09
2023-02-13T00:08:21.701Z,99240.64
2023-02-13T00:10:55.661Z,99234.64
2023-02-13T00:13:29.435Z,99230.91
2023-02-13T00:16:04.636Z,99234.69
2023-02-13T00:18:39.831Z,99224.97
2023-02-13T00:21:15.179Z,99222.68
2023-02-13T00:23:48.469Z,99217.06
2023-02-13T00:26:21.806Z,99213.97
2023-02-13T00:28:55.313Z,99214.98
2023-02-13T00:31:30.135Z,99200.63
2023-02-13T00:34:03.311Z,99188.83
2023-02-13T00:36:36.585Z,99189.81
2023-02-13T00:39:10.304Z,99183.09
2023-02-13T00:41:43.145Z,99178.13
2023-02-13T00:44:16.700Z,99172.50
2023-02-13T00:46:50.082Z,99166.10
2023-02-13T00:49:23.247Z,99173.17
2023-02-13T00:51:56.485Z,99174.94
2023-02-13T00:54:29.700Z,99157.47
2023-02-13T00:57:03.028Z,99158.14
2023-02-13T00:59:36.159Z,99158.14
2023-02-13T01:02:09.387Z,99170.08
2023-02-13T01:04:42.533Z,99163.47
2023-02-13T01:07:16.716Z,99160.37
2023-02-13T01:09:49.864Z,99160.58
2023-02-13T01:12:23.073Z,99165.80
2023-02-13T01:14:56.359Z,99157.27
2023-02-13T01:17:29.695Z,99152.44
2023-02-13T01:20:03.125Z,99143.25
2023-02-13T01:22:36.082Z,99145.13
2023-02-13T01:25:10.558Z,99133.53
2023-02-13T01:27:43.677Z,99131.97
2023-02-13T01:30:18.738Z,99127.69
2023-02-13T01:32:51.845Z,99130.23
2023-02-13T01:35:24.843Z,99121.80
2023-02-13T01:37:58.985Z,99118.59
2023-02-13T01:40:32.245Z,99104.46
2023-02-13T01:43:09.371Z,99097.95
2023-02-13T01:45:43.695Z,99092.41
2023-02-13T01:48:19.866Z,99088.32
2023-02-13T01:50:56.409Z,99079.59
2023-02-13T01:53:33.122Z,99076.51
2023-02-13T01:56:09.267Z,99070.22
2023-02-13T01:58:45.380Z,99062.50
2023-02-13T02:01:18.846Z,99065.70
2023-02-13T02:03:56.676Z,99064.73
2023-02-13T02:06:32.675Z,99064.73
2023-02-13T02:09:09.007Z,99053.77
2023-02-13T02:11:46.143Z,99060.83
2023-02-13T02:14:20.206Z,99057.52
2023-02-13T02:16:54.061Z,99049.23
2023-02-13T02:19:33.078Z,99048.56
2023-02-13T02:22:32.744Z,99044.58
2023-02-13T02:25:35.774Z,99044.58
2023-02-13T02:32:01.557Z,99036.16
2023-02-13T02:34:39.198Z,99027.80
2023-02-13T02:37:15.441Z,99039.50
2023-02-13T02:39:53.219Z,99022.05
2023-02-13T02:42:31.479Z,99027.13
2023-02-13T02:45:07.984Z,99011.30
2023-02-13T02:48:02.864Z,99001.44
2023-02-13T02:50:42.543Z,98998.12
2023-02-13T02:53:22.124Z,99005.17
2023-02-13T02:55:58.422Z,98996.58
2023-02-13T02:58:52.375Z,99002.63
2023-02-13T03:01:47.020Z,98985.74
2023-02-13T03:04:40.994Z,98983.06
2023-02-13T03:07:16.688Z,98983.20
2023-02-13T03:10:10.845Z,98986.61
2023-02-13T03:13:05.012Z,98981.86
2023-02-13T03:15:41.868Z,98977.54
2023-02-13T03:18:32.574Z,98970.78
2023-02-13T03:21:26.182Z,98957.40
2023-02-13T03:24:02.204Z,98952.89
2023-02-13T03:26:50.802Z,98956.98
2023-02-13T03:29:51.006Z,98944.49
2023-02-13T03:32:28.083Z,98948.81
2023-02-13T03:35:22.223Z,98921.81
2023-02-13T03:37:58.306Z,98928.85
2023-02-13T03:40:34.895Z,98907.16
2023-02-13T03:43:11.395Z,98912.56
2023-02-13T03:45:57.522Z,98905.34
2023-02-13T03:48:51.055Z,98904.76
2023-02-13T03:51:27.618Z,98907.72
2023-02-13T03:54:03.649Z,98910.53
2023-02-13T03:56:56.827Z,98911.78
2023-02-13T03:59:33.411Z,98911.31
2023-02-13T04:02:10.443Z,98908.18
2023-02-13T04:04:47.733Z,98901.73
2023-02-13T04:07:32.193Z,98904.77
2023-02-13T04:10:08.545Z,98906.80
2023-02-13T04:12:45.417Z,98897.62
2023-02-13T04:15:21.450Z,98893.48
2023-02-13T04:17:58.110Z,98880.77
2023-02-13T04:20:32.878Z,98873.94
2023-02-13T04:23:09.742Z,98864.53
2023-02-13T04:25:45.666Z,98867.08
2023-02-13T04:28:19.306Z,98861.98
2023-02-13T04:30:52.632Z,98863.84
2023-02-13T04:33:25.985Z,98855.52
2023-02-13T04:35:59.190Z,98847.20
2023-02-13T04:38:32.433Z,98849.14
2023-02-13T04:41:05.644Z,98835.03
2023-02-13T04:43:38.907Z,98826.62
2023-02-13T04:46:12.154Z,98832.75
2023-02-13T04:48:45.393Z,98824.55
2023-02-13T04:51:18.551Z,98822.95
2023-02-13T04:53:51.357Z,98809.62
2023-02-13T04:56:24.529Z,98815.09
2023-02-13T04:58:58.439Z,98810.98
2023-02-13T05:01:32.043Z,98816.16
2023-02-13T05:04:05.916Z,98797.03
2023-02-13T05:06:39.325Z,98799.17
2023-02-13T05:09:13.387Z,98798.48
2023-02-13T05:11:46.756Z,98782.30
2023-02-13T05:14:20.187Z,98793.39
2023-02-13T05:16:53.349Z,98795.81
2023-02-13T05:19:26.741Z,98787.39
2023-02-13T05:22:17.399Z,98781.52
2023-02-13T05:24:50.525Z,98786.00
2023-02-13T05:27:23.812Z,98793.72
2023-02-13T05:29:56.949Z,98777.05
2023-02-13T05:32:30.198Z,98786.45
2023-02-13T05:35:04.653Z,98771.86
2023-02-13T05:37:37.982Z,98778.89
2023-02-13T05:40:14.172Z,98769.84
2023-02-13T05:42:47.225Z,98781.02
2023-02-13T05:45:20.620Z,98792.17
2023-02-13T05:47:53.819Z,98764.14
2023-02-13T05:50:27.277Z,98771.00
2023-02-13T05:53:01.204Z,98773.55
2023-02-13T05:55:34.553Z,98752.54
2023-02-13T05:58:09.469Z,98767.25
2023-02-13T06:00:42.624Z,98782.63
2023-02-13T06:03:16.029Z,98766.34
2023-02-13T06:05:49.369Z,98767.41
2023-02-13T06:08:23.123Z,98760.83
2023-02-13T06:10:56.526Z,98772.76
2023-02-13T06:13:29.838Z,98776.45
2023-02-13T06:16:02.986Z,98764.14
2023-02-13T06:18:36.796Z,98763.55
2023-02-13T06:21:10.794Z,98763.02
2023-02-13T06:23:44.032Z,98754.73
2023-02-13T06:26:19.677Z,98749.91
2023-02-13T06:28:53.118Z,98762.66
2023-02-13T06:31:27.006Z,98747.59
2023-02-13T06:34:00.319Z,98751.99
2023-02-13T06:36:33.379Z,98731.23
2023-02-13T06:39:07.255Z,98728.31
2023-02-13T06:41:40.733Z,98733.49
2023-02-13T06:44:13.893Z,98725.98
2023-02-13T06:46:47.643Z,98726.06
2023-02-13T06:49:21.011Z,98710.23
2023-02-13T06:51:54.530Z,98719.17
2023-02-13T06:54:44.657Z,98717.82
2023-02-13T06:57:03.186Z,98702.98
2023-02-13T06:59:36.651Z,98714.81
2023-02-13T07:02:11.421Z,98705.55
2023-02-13T07:04:46.538Z,98703.17
2023-02-13T07:07:20.247Z,98697.88
2023-02-13T07:09:53.286Z,98696.45
2023-02-13T07:12:26.895Z,98692.39
2023-02-13T07:15:00.301Z,98683.48
2023-02-13T07:17:35.210Z,98686.90
2023-02-13T07:20:10.937Z,98685.28
2023-02-13T07:22:44.059Z,98684.89
2023-02-13T07:25:18.831Z,98680.42
2023-02-13T07:27:52.388Z,98668.05
2023-02-13T07:30:25.613Z,98681.28
2023-02-13T07:33:02.543Z,98671.44
2023-02-13T07:35:37.901Z,98670.93
2023-02-13T07:38:11.028Z,98669.00
2023-02-13T07:40:44.325Z,98654.23
2023-02-13T07:43:17.657Z,98648.56
2023-02-13T07:45:52.713Z,98652.22
2023-02-13T07:48:27.383Z,98648.94
2023-02-13T07:51:04.383Z,98648.20
2023-02-13T07:53:37.860Z,98642.98
2023-02-13T07:56:12.724Z,98656.01
2023-02-13T07:58:46.404Z,98644.02
2023-02-13T08:01:20.459Z,98646.64
2023-02-13T08:03:53.954Z,98644.98
2023-02-13T08:06:27.742Z,98630.00
2023-02-13T08:09:18.469Z,98640.16
2023-02-13T08:11:55.377Z,98642.98
2023-02-13T08:14:29.751Z,98633.05
2023-02-13T08:17:03.435Z,98633.84
2023-02-13T08:19:36.672Z,98626.46
2023-02-13T08:22:10.563Z,98621.34
2023-02-13T08:24:43.833Z,98629.82
2023-02-13T08:27:17.915Z,98616.36
2023-02-13T08:29:52.602Z,98620.00
2023-02-13T08:32:26.555Z,98614.15
2023-02-13T08:35:00.022Z,98615.34
2023-02-13T08:37:34.581Z,98607.05
2023-02-13T08:40:10.976Z,98596.19
2023-02-13T08:42:44.768Z,98598.91
2023-02-13T08:45:18.447Z,98588.67
2023-02-13T08:47:51.732Z,98592.42
2023-02-13T08:50:25.493Z,98594.31
2023-02-13T08:52:59.148Z,98574.05
2023-02-13T08:55:32.358Z,98584.13
2023-02-13T08:58:06.495Z,98579.02
2023-02-13T09:00:39.978Z,98573.16
2023-02-13T09:03:13.568Z,98575.71
2023-02-13T09:05:48.177Z,98573.09
2023-02-13T09:08:21.738Z,98577.59
2023-02-13T09:11:01.099Z,98565.88
2023-02-13T09:13:37.336Z,98564.33
2023-02-13T09:16:12.074Z,98560.50
2023-02-13T09:18:45.240Z,98563.30
2023-02-13T09:21:19.385Z,98560.33
2023-02-13T09:23:53.311Z,98549.12
2023-02-13T09:26:27.083Z,98543.94
2023-02-13T09:29:00.626Z,98541.86
2023-02-13T09:31:34.303Z,98540.44
2023-02-13T09:34:07.732Z,98533.11
2023-02-13T09:36:41.172Z,98528.64
2023-02-13T09:39:14.813Z,98524.97
2023-02-13T09:44:39.133Z,98500.27
2023-02-13T09:47:17.458Z,98505.13
2023-02-13T09:49:53.881Z,98505.48
2023-02-13T09:52:29.766Z,98505.41
2023-02-13T09:55:06.282Z,98496.61
2023-02-13T09:57:42.370Z,98499.03
2023-02-13T10:00:20.286Z,98498.84
2023-02-13T10:03:22.110Z,98489.00
2023-02-13T10:06:00.867Z,98500.83
2023-02-13T10:08:41.084Z,98491.08
2023-02-13T10:11:25.428Z,98491.67
2023-02-13T10:14:05.720Z,98491.84
2023-02-13T10:16:42.011Z,98487.60
2023-02-13T10:19:20.990Z,98499.62
2023-02-13T10:21:57.581Z,98487.89
2023-02-13T10:24:35.449Z,98488.19
2023-02-13T10:27:13.383Z,98478.97
2023-02-13T10:30:09.817Z,98474.27
2023-02-13T10:32:51.003Z,98462.09
2023-02-13T10:35:28.282Z,98462.64
2023-02-13T10:38:04.207Z,98453.22
2023-02-13T10:40:41.348Z,98448.47
2023-02-13T10:43:17.968Z,98442.56
2023-02-13T10:46:00.893Z,98444.96
2023-02-13T10:49:06.824Z,98436.48
2023-02-13T10:54:30.729Z,98429.58
2023-02-13T10:57:09.371Z,98427.44
2023-02-13T11:00:02.001Z,98431.51
2023-02-13T11:02:37.177Z,98419.23
2023-02-13T11:05:17.511Z,98396.83
2023-02-13T11:07:51.563Z,98414.91
2023-02-13T11:10:27.354Z,98403.50
2023-02-13T11:13:03.637Z,98400.97
2023-02-13T11:15:37.397Z,98418.95
2023-02-13T11:18:18.652Z,98415.45
2023-02-13T11:21:00.131Z,98416.59
2023-02-13T11:23:45.670Z,98400.81
2023-02-13T11:26:25.304Z,98404.81
2023-02-13T11:29:02.075Z,98391.72
2023-02-13T11:31:37.209Z,98388.16
2023-02-13T11:34:27.273Z,98389.80
2023-02-13T11:37:19.054Z,98376.78
2023-02-13T11:39:54.450Z,98374.94
2023-02-13T11:42:33.837Z,98367.07
2023-02-13T11:45:09.880Z,98373.96
2023-02-13T11:47:44.539Z,98362.95
2023-02-13T11:50:27.375Z,98357.94
2023-02-13T11:53:03.440Z,98355.78
2023-02-13T11:55:38.578Z,98359.56
2023-02-13T11:58:26.272Z,98358.12
2023-02-13T12:01:05.168Z,98345.31
2023-02-13T12:03:39.349Z,98336.89
2023-02-13T12:06:18.610Z,98329.89
2023-02-13T12:08:52.949Z,98329.73
2023-02-13T12:11:29.129Z,98319.17
2023-02-13T12:14:04.430Z,98334.72
2023-02-13T12:16:41.283Z,98339.03
2023-02-13T12:19:17.880Z,98336.42
2023-02-13T12:21:59.383Z,98332.10
2023-02-13T12:24:41.726Z,98327.78
2023-02-13T12:27:19.451Z,98326.19
2023-02-13T12:30:04.017Z,98309.32
2023-02-13T12:32:43.061Z,98318.34
2023-02-13T12:35:34.130Z,98311.63
2023-02-13T12:38:11.586Z,98319.05
2023-02-13T12:41:16.049Z,98306.94
2023-02-13T12:44:21.359Z,98312.08
2023-02-13T12:47:00.607Z,98295.75
2023-02-13T12:53:03.394Z,98280.84
2023-02-13T12:55:47.688Z,98265.13
2023-02-13T12:58:44.558Z,98268.52
2023-02-13T13:01:23.830Z,98260.91
2023-02-13T13:04:04.279Z,98263.55
2023-02-13T13:06:57.473Z,98261.77
2023-02-13T13:09:43.245Z,98263.41
2023-02-13T13:12:35.127Z,98259.91
2023-02-13T13:15:12.618Z,98270.27
2023-02-13T13:17:54.101Z,98267.62
2023-02-13T13:20:43.810Z,98265.05
2023-02-13T13:23:20.341Z,98260.80
2023-02-13T13:26:00.529Z,98261.63
2023-02-13T13:28:37.147Z,98259.02
2023-02-13T13:31:12.028Z,98253.87
2023-02-13T13:33:47.534Z,98255.47
2023-02-13T13:36:27.696Z,98256.33
2023-02-13T13:39:05.446Z,98250.33
2023-02-13T13:41:42.801Z,98252.86
2023-02-13T13:44:26.729Z,98240.09
2023-02-13T13:47:03.326Z,98239.19
2023-02-13T13:49:44.638Z,98231.55
2023-02-13T13:52:27.364Z,98228.98
2023-02-13T13:55:02.900Z,98229.58
2023-02-13T13:58:01.682Z,98235.61
2023-02-13T14:00:36.858Z,98236.40
2023-02-13T14:03:26.455Z,98236.14
2023-02-13T14:06:19.506Z,98241.95
2023-02-13T14:09:15.657Z,98231.56
2023-02-13T14:11:49.497Z,98220.27
2023-02-13T14:14:59.921Z,98217.63
2023-02-13T14:17:54.658Z,98217.63
2023-02-13T14:20:39.615Z,98215.80
2023-02-13T14:23:21.452Z,98218.25
2023-02-13T14:26:12.621Z,98215.58
2023-02-13T14:28:48.254Z,98217.28
2023-02-13T14:31:24.588Z,98207.94
2023-02-13T14:34:01.283Z,98209.70
2023-02-13T14:36:36.802Z,98200.16
2023-02-13T14:39:13.489Z,98203.58
2023-02-13T14:42:01.095Z,98192.41
2023-02-13T14:44:35.227Z,98193.34
2023-02-13T14:47:14.994Z,98185.86
2023-02-13T14:49:50.105Z,98184.81
2023-02-13T14:52:27.828Z,98175.44
2023-02-13T14:55:01.608Z,98174.62
2023-02-13T14:57:39.320Z,98174.69
2023-02-13T15:00:17.619Z,98160.95
2023-02-13T15:02:54.314Z,98162.66
2023-02-13T15:05:30.446Z,98155.84
2023-02-13T15:08:09.032Z,98144.67
2023-02-13T15:10:47.278Z,98137.89
2023-02-13T15:13:23.596Z,98130.27
2023-02-13T15:15:59.635Z,98131.11
2023-02-13T15:18:37.392Z,98123.48
2023-02-13T15:21:15.521Z,98121.66
2023-02-13T15:23:52.350Z,98109.70
2023-02-13T15:26:29.080Z,98116.48
2023-02-13T15:29:05.837Z,98118.16
2023-02-13T15:31:39.395Z,98112.98
2023-02-13T15:34:25.143Z,98110.45
2023-02-13T15:36:59.206Z,98095.14
2023-02-13T15:39:33.533Z,98090.00
2023-02-13T15:42:07.278Z,98096.82
2023-02-13T15:44:41.945Z,98083.94
2023-02-13T15:47:21.312Z,98079.59
2023-02-13T15:49:55.266Z,98085.72
2023-02-13T15:52:33.446Z,98089.08
2023-02-13T15:55:08.141Z,98077.84
2023-02-13T15:57:42.346Z,98080.37
2023-02-13T16:00:21.517Z,98061.56
2023-02-13T16:02:57.321Z,98064.10
2023-02-13T16:05:39.868Z,98065.81
2023-02-13T16:08:31.111Z,98064.95
2023-02-13T16:14:21.871Z,98054.27
2023-02-13T16:16:58.177Z,98052.25
2023-02-13T16:19:38.875Z,98027.41
2023-02-13T16:22:23.137Z,98032.62
2023-02-13T16:24:59.022Z,98017.20
2023-02-13T16:27:33.871Z,98004.45
2023-02-13T16:30:10.942Z,98019.11
2023-02-13T16:32:44.595Z,97995.06
2023-02-13T16:35:31.216Z,98000.20
2023-02-13T16:38:05.623Z,97996.05
2023-02-13T16:40:42.221Z,97990.09
2023-02-13T16:43:40.442Z,97985.05
2023-02-13T16:46:36.377Z,97981.58
2023-02-13T16:49:20.943Z,97985.05
2023-02-13T16:52:00.750Z,97966.80
2023-02-13T16:54:50.368Z,97968.03
2023-02-13T16:57:31.028Z,97979.05
2023-02-13T17:00:09.861Z,97964.61
2023-02-13T17:02:43.489Z,97960.36
2023-02-13T17:05:23.226Z,97954.33
2023-02-13T17:07:58.054Z,97968.03
2023-02-13T17:10:34.149Z,97956.13
2023-02-13T17:13:13.306Z,97954.45
2023-02-13T17:15:48.519Z,97954.42
2023-02-13T17:18:22.243Z,97949.28
2023-02-13T17:21:35.946Z,97949.31
2023-02-13T17:24:13.916Z,97933.92
2023-02-13T17:26:47.635Z,97922.72
2023-02-13T17:29:20.939Z,97918.49
2023-02-13T17:32:07.976Z,97912.52
2023-02-13T17:34:52.997Z,97900.44
2023-02-13T17:37:28.558Z,97897.90
2023-02-13T17:40:02.430Z,97894.44
2023-02-13T17:42:37.483Z,97891.93
2023-02-13T17:45:14.372Z,97885.91
2023-02-13T17:47:48.210Z,97880.77
2023-02-13T17:50:22.706Z,97870.45
2023-02-13T17:52:57.093Z,97877.31
2023-02-13T17:55:32.544Z,97879.11
2023-02-13T17:58:06.411Z,97887.62
2023-02-13T18:00:40.170Z,97861.80
2023-02-13T18:03:14.681Z,97873.94
2023-02-13T18:05:50.464Z,97864.52
2023-02-13T18:08:24.179Z,97872.22
2023-02-13T18:10:58.662Z,97866.23
2023-02-13T18:13:32.667Z,97862.86
2023-02-13T18:16:10.605Z,97850.83
2023-02-13T18:18:44.231Z,97848.27
2023-02-13T18:21:18.004Z,97838.84
2023-02-13T18:23:54.630Z,97843.13
2023-02-13T18:26:27.838Z,97853.45
2023-02-13T18:29:01.285Z,97830.15
2023-02-13T18:31:34.898Z,97831.20
2023-02-13T18:34:08.505Z,97824.30
2023-02-13T18:36:42.124Z,97820.02
2023-02-13T18:39:16.011Z,97811.47
2023-02-13T18:41:49.827Z,97801.19
2023-02-13T18:44:28.441Z,97797.79
2023-02-13T18:46:58.471Z,97804.59
2023-02-13T18:49:31.995Z,97781.42
2023-02-13T18:52:05.690Z,97789.16
2023-02-13T18:54:39.688Z,97772.89
2023-02-13T18:57:13.298Z,97776.34
2023-02-13T18:59:46.666Z,97778.08
2023-02-13T19:02:20.405Z,97774.59
2023-02-13T19:04:53.757Z,97761.83
2023-02-13T19:07:27.202Z,97767.82
2023-02-13T19:10:00.666Z,97760.05
2023-02-13T19:12:34.109Z,97754.92
2023-02-13T19:15:08.219Z,97761.00
2023-02-13T19:17:41.712Z,97748.08
2023-02-13T19:20:17.024Z,97740.43
2023-02-13T19:22:55.243Z,97748.89
2023-02-13T19:25:28.577Z,97748.14
2023-02-13T19:28:02.040Z,97741.26
2023-02-13T19:30:35.551Z,97737.88
2023-02-13T19:33:08.645Z,97729.36
2023-02-13T19:35:42.835Z,97737.08
2023-02-13T19:38:16.357Z,97718.25
2023-02-13T19:40:49.595Z,97731.91
2023-02-13T19:43:23.206Z,97733.67
2023-02-13T19:45:58.558Z,97732.79
2023-02-13T19:48:32.126Z,97723.39
2023-02-13T19:51:10.227Z,97725.10
2023-02-13T19:53:43.717Z,97719.12
2023-02-13T19:56:17.535Z,97724.30
2023-02-13T19:58:50.986Z,97732.81
2023-02-13T20:01:26.136Z,97715.75
2023-02-13T20:04:00.142Z,97730.34
2023-02-13T20:06:36.820Z,97726.14
2023-02-13T20:09:12.202Z,97723.61
2023-02-13T20:11:46.211Z,97724.55
2023-02-13T20:14:19.817Z,97723.66
2023-02-13T20:16:53.019Z,97713.35
2023-02-13T20:19:27.897Z,97733.92
2023-02-13T20:22:01.870Z,97735.66
2023-02-13T20:24:35.526Z,97730.55
2023-02-13T20:27:10.568Z,97721.05
2023-02-13T20:29:45.074Z,97733.09
2023-02-13T20:32:18.534Z,97732.19
2023-02-13T20:34:59.546Z,97735.59
2023-02-13T20:37:27.381Z,97728.80
2023-02-13T20:40:00.920Z,97731.18
2023-02-13T20:42:38.540Z,97737.91
2023-02-13T20:45:12.829Z,97740.48
2023-02-13T20:47:47.353Z,97739.65
2023-02-13T20:50:20.812Z,97749.91
2023-02-13T20:52:54.338Z,97743.88
2023-02-13T20:55:28.046Z,97743.00
2023-02-13T20:58:01.588Z,97745.57
2023-02-13T21:00:35.291Z,97745.48
2023-02-13T21:03:09.057Z,97749.78
2023-02-13T21:05:45.751Z,97748.02
2023-02-13T21:08:19.244Z,97748.84
2023-02-13T21:10:52.766Z,97756.69
2023-02-13T21:13:26.152Z,97760.22
2023-02-13T21:16:09.000Z,97768.89
2023-02-13T21:18:43.137Z,97757.85
2023-02-13T21:21:17.384Z,97757.88
2023-02-13T21:23:52.444Z,97754.47
2023-02-13T21:26:26.392Z,97758.78
2023-02-13T21:29:00.471Z,97758.78
2023-02-13T21:31:36.271Z,97757.88
2023-02-13T21:34:12.184Z,97754.42
2023-02-13T21:36:47.314Z,97754.47
2023-02-13T21:39:20.689Z,97748.55
2023-02-13T21:41:54.130Z,97758.00
2023-02-13T21:44:27.990Z,97754.52
2023-02-13T21:47:01.601Z,97744.19
2023-02-13T21:49:35.955Z,97750.94
2023-02-13T21:52:09.320Z,97761.16
2023-02-13T21:54:43.019Z,97755.95
2023-02-13T21:57:16.277Z,97744.84
2023-02-13T21:59:49.761Z,97764.53
2023-02-13T22:02:23.533Z,97773.07
2023-02-13T22:04:57.107Z,97765.33
2023-02-13T22:07:30.534Z,97759.07
2023-02-13T22:10:04.012Z,97772.70
2023-02-13T22:12:36.755Z,97763.25
2023-02-13T22:15:11.269Z,97767.55
2023-02-13T22:17:44.713Z,97764.21
2023-02-13T22:20:19.008Z,97765.04
2023-02-13T22:22:52.636Z,97766.70
2023-02-13T22:25:26.094Z,97778.69
2023-02-13T22:27:59.441Z,97773.60
2023-02-13T22:30:33.098Z,97777.94
2023-02-13T22:33:07.084Z,97782.36
2023-02-13T22:35:41.396Z,97767.84
2023-02-13T22:38:15.192Z,97778.13
2023-02-13T22:40:48.483Z,97779.69
2023-02-13T22:43:22.011Z,97784.88
2023-02-13T22:45:55.582Z,97787.45
2023-02-13T22:48:29.186Z,97779.73
2023-02-13T22:51:06.089Z,97787.56
2023-02-13T22:53:40.115Z,97788.47
2023-02-13T22:56:14.191Z,97786.75
2023-02-13T22:58:47.605Z,97795.30
2023-02-13T23:01:22.739Z,97790.18
2023-02-13T23:03:56.534Z,97792.73
2023-02-13T23:06:30.212Z,97790.16
2023-02-13T23:09:03.838Z,97796.19
2023-02-13T23:11:54.780Z,97795.30
2023-02-13T23:14:28.375Z,97798.70
2023-02-13T23:17:19.703Z,97802.12
2023-02-13T23:19:53.178Z,97802.18
2023-02-13T23:22:26.274Z,97811.64
2023-02-13T23:24:59.653Z,97814.23
2023-02-13T23:27:36.225Z,97812.52
2023-02-13T23:30:12.559Z,97810.86
2023-02-13T23:32:46.057Z,97816.91
2023-02-13T23:35:20.181Z,97817.80
2023-02-13T23:37:53.673Z,97803.25
2023-02-13T23:40:27.205Z,97816.00
2023-02-13T23:43:00.609Z,97805.67
2023-02-13T23:45:34.055Z,97807.38
2023-02-13T23:48:09.874Z,97811.77
2023-02-13T23:50:44.226Z,97814.39
2023-02-13T23:53:17.769Z,97814.39
2023-02-13T23:55:51.607Z,97817.02
2023-02-13T23:58:24.944Z,97819.59
